Time;durP1;ratioP1;P1;durP2;ratioP2;P2;SDS_P1;SDS_P2;PMS_P1;PMS_P2;Temp;Humidity;BMP_temperature;BMP_pressure;BME280_temperature;BME280_humidity;BME280_pressure;Samples;Min_cycle;Max_cycle;Signal;HPM_P1;HPM_P2
2021/10/09 00:02:02;;;;;;;7.87;4.50;;;;;;;3.59;55.84;102453.05;1736627;81;21127;-73
2021/10/09 00:04:36;;;;;;;9.88;5.12;;;;;;;3.59;55.94;102453.55;1774972;80;21063;-74
2021/10/09 00:07:10;;;;;;;8.13;4.70;;;;;;;3.58;56.27;102454.52;1743142;81;21180;-74
2021/10/09 00:09:45;;;;;;;7.53;5.00;;;;;;;3.58;56.64;102457.16;1796694;79;21027;-74
2021/10/09 00:12:21;;;;;;;8.00;4.87;;;;;;;3.55;57.20;102456.16;1785828;79;21030;-73
2021/10/09 00:15:02;;;;;;;8.80;4.80;;;;;;;3.52;57.33;102457.30;1738688;82;21278;-74
2021/10/09 00:17:37;;;;;;;8.75;4.95;;;;;;;3.49;57.38;102452.38;1736473;81;21083;-74
2021/10/09 00:20:15;;;;;;;8.35;5.20;;;;;;;3.46;57.71;102455.34;1739539;81;21035;-74
2021/10/09 00:22:53;;;;;;;8.18;5.30;;;;;;;3.46;57.83;102454.02;1750993;81;21128;-74
2021/10/09 00:25:24;;;;;;;8.80;4.87;;;;;;;3.44;57.73;102459.95;1783333;80;21018;-74
2021/10/09 00:28:07;;;;;;;8.40;4.85;;;;;;;3.42;57.68;102450.88;1728576;81;21122;-73
2021/10/09 00:30:35;;;;;;;9.75;4.92;;;;;;;3.42;57.45;102445.59;1781440;80;20936;-75
2021/10/09 00:33:12;;;;;;;9.00;5.47;;;;;;;3.39;57.37;102452.53;1744824;80;21518;-74
2021/10/09 00:35:39;;;;;;;9.10;4.90;;;;;;;3.36;57.36;102448.89;1735324;81;21042;-73
2021/10/09 00:38:25;;;;;;;9.35;4.65;;;;;;;3.34;57.45;102443.42;1782682;80;21395;-73
2021/10/09 00:40:52;;;;;;;7.37;4.45;;;;;;;3.33;57.51;102445.25;1735892;81;21459;-73
2021/10/09 00:43:42;;;;;;;8.48;4.67;;;;;;;3.31;57.79;102443.25;1755494;81;21463;-71
2021/10/09 00:46:14;;;;;;;9.43;5.25;;;;;;;3.32;57.66;102446.71;1756718;81;21060;-73
2021/10/09 00:48:57;;;;;;;7.92;4.97;;;;;;;3.30;57.45;102436.33;1776366;80;20975;-73
2021/10/09 00:51:37;;;;;;;10.15;5.25;;;;;;;3.30;57.70;102442.92;1750512;79;21027;-73
2021/10/09 00:54:23;;;;;;;9.15;5.08;;;;;;;3.32;57.31;102440.94;1761938;80;21150;-73
2021/10/09 00:57:04;;;;;;;9.48;5.37;;;;;;;3.35;57.38;102441.92;1712457;81;20930;-70
2021/10/09 00:59:45;;;;;;;10.23;5.03;;;;;;;3.38;57.37;102436.33;1756522;79;20899;-72
2021/10/09 01:02:25;;;;;;;8.88;4.92;;;;;;;3.40;57.61;102427.75;1736959;81;21039;-73
2021/10/09 01:05:09;;;;;;;9.55;4.83;;;;;;;3.42;57.47;102428.42;1761077;81;20987;-73
2021/10/09 01:07:49;;;;;;;6.75;4.12;;;;;;;3.40;57.59;102425.61;1752433;81;21495;-72
2021/10/09 01:10:27;;;;;;;7.75;4.40;;;;;;;3.37;57.45;102432.04;1754991;81;21034;-72
2021/10/09 01:13:07;;;;;;;8.35;4.35;;;;;;;3.38;57.42;102427.58;1756370;81;21089;-72
2021/10/09 01:15:48;;;;;;;8.90;5.42;;;;;;;3.37;57.22;102428.58;1743869;81;21502;-72
2021/10/09 01:18:30;;;;;;;9.70;5.10;;;;;;;3.39;57.11;102436.67;1750102;81;21147;-73
2021/10/09 01:21:05;;;;;;;7.87;4.80;;;;;;;3.41;57.40;102429.89;1744235;81;21869;-72
2021/10/09 01:23:44;;;;;;;10.65;4.80;;;;;;;3.42;57.40;102431.54;1790181;80;21168;-72
2021/10/09 01:26:20;;;;;;;9.63;5.53;;;;;;;3.41;57.25;102428.08;1751650;81;21003;-73
2021/10/09 01:28:57;;;;;;;9.95;5.22;;;;;;;3.40;57.29;102426.43;1757354;80;21066;-72
2021/10/09 01:31:36;;;;;;;9.23;5.10;;;;;;;3.40;57.18;102427.75;1711452;82;21614;-74
2021/10/09 01:34:17;;;;;;;10.35;5.55;;;;;;;3.39;57.12;102428.75;1741493;79;21828;-74
2021/10/09 01:37:05;;;;;;;9.83;5.40;;;;;;;3.37;57.25;102424.61;1738572;82;21044;-73
2021/10/09 01:39:59;;;;;;;9.78;5.45;;;;;;;3.36;57.39;102434.36;1729817;82;21562;-73
2021/10/09 01:42:49;;;;;;;8.78;5.33;;;;;;;3.34;57.42;102432.36;1771977;79;21038;-74
2021/10/09 01:45:29;;;;;;;11.12;6.25;;;;;;;3.34;57.82;102432.36;1731419;81;21114;-72
2021/10/09 01:48:04;;;;;;;10.85;6.20;;;;;;;3.33;57.71;102429.90;1727336;81;21482;-73
2021/10/09 01:50:38;;;;;;;9.63;5.70;;;;;;;3.32;57.75;102433.01;1752547;81;20996;-72
2021/10/09 01:53:14;;;;;;;12.33;5.83;;;;;;;3.28;57.69;102430.37;1781378;79;21239;-74
2021/10/09 01:55:48;;;;;;;9.15;6.00;;;;;;;3.22;57.68;102426.55;1711821;82;21078;-72
2021/10/09 01:58:19;;;;;;;10.30;6.42;;;;;;;3.19;57.64;102424.73;1736931;82;20984;-73
2021/10/09 02:00:54;;;;;;;10.82;6.03;;;;;;;3.18;57.71;102428.38;1743090;81;21765;-72
2021/10/09 02:03:35;;;;;;;11.15;6.50;;;;;;;3.19;57.73;102431.33;1768488;81;21012;-72
2021/10/09 02:06:18;;;;;;;12.25;6.50;;;;;;;3.17;58.13;102428.88;1768780;81;21524;-72
2021/10/09 02:09:02;;;;;;;9.60;5.78;;;;;;;3.16;58.40;102426.37;1762194;81;21031;-72
2021/10/09 02:11:45;;;;;;;10.75;5.00;;;;;;;3.10;58.85;102430.52;1737950;81;21024;-72
2021/10/09 02:14:38;;;;;;;8.28;5.00;;;;;;;3.00;58.60;102428.01;1757406;81;21494;-72
2021/10/09 02:17:24;;;;;;;12.47;5.15;;;;;;;2.94;58.92;102428.64;1785624;80;21070;-71
2021/10/09 02:25:46;;;;;;;9.20;5.10;;;;;;;2.86;58.70;102422.50;1737139;81;21111;-72
2021/10/09 02:28:31;;;;;;;8.50;5.37;;;;;;;2.85;58.78;102419.54;1768263;80;21117;-73
2021/10/09 02:31:11;;;;;;;9.35;5.70;;;;;;;2.83;58.76;102423.67;1743655;81;21448;-73
2021/10/09 02:33:57;;;;;;;8.43;5.30;;;;;;;2.80;59.09;102420.85;1740248;81;21131;-72
2021/10/09 02:36:38;;;;;;;10.25;5.70;;;;;;;2.80;59.24;102422.67;1690482;82;21067;-73
2021/10/09 02:39:19;;;;;;;9.03;5.20;;;;;;;2.74;59.32;102425.44;1788583;79;21030;-72
2021/10/09 02:41:59;;;;;;;10.72;5.85;;;;;;;2.73;59.44;102433.50;1765121;79;21987;-72
2021/10/09 02:44:51;;;;;;;8.10;5.30;;;;;;;2.69;59.33;102430.36;1773358;79;21066;-74
2021/10/09 02:47:41;;;;;;;10.93;6.20;;;;;;;2.68;59.29;102431.35;1792250;79;21058;-73
2021/10/09 02:50:28;;;;;;;10.93;6.20;;;;;;;2.67;59.35;102420.47;1788290;78;21027;-74
2021/10/09 02:53:09;;;;;;;9.05;5.75;;;;;;;2.64;59.58;102423.92;1770125;79;21057;-72
2021/10/09 02:56:03;;;;;;;11.08;5.67;;;;;;;2.62;59.63;102423.24;1789810;79;21179;-72
2021/10/09 02:58:56;;;;;;;9.38;5.83;;;;;;;2.61;59.75;102430.34;1768927;79;21540;-73
2021/10/09 03:26:15;;;;;;;10.10;6.78;;;;;;;2.20;60.57;102430.10;1753780;79;21086;-72
2021/10/09 03:28:41;;;;;;;10.90;6.37;;;;;;;2.16;60.66;102425.30;1744803;81;22428;-72
2021/10/09 03:31:09;;;;;;;9.73;5.90;;;;;;;2.11;60.78;102427.92;1738258;79;21555;-72
2021/10/09 03:33:37;;;;;;;11.93;5.67;;;;;;;2.06;60.94;102434.14;1759671;81;21070;-72
2021/10/09 03:36:05;;;;;;;10.93;6.22;;;;;;;1.97;61.08;102431.10;1739087;79;21028;-72
2021/10/09 03:38:32;;;;;;;10.35;6.08;;;;;;;1.93;61.29;102431.08;1735149;82;21498;-73
2021/10/09 03:41:05;;;;;;;9.90;6.15;;;;;;;1.91;61.47;102431.74;1749645;81;21164;-72
2021/10/09 03:43:29;;;;;;;10.90;6.10;;;;;;;1.85;61.48;102429.22;1755423;81;21224;-72
2021/10/09 03:53:59;;;;;;;11.97;6.28;;;;;;;1.74;61.79;102436.03;1695664;82;21166;-72
2021/10/09 03:56:26;;;;;;;11.30;5.75;;;;;;;1.70;61.90;102441.77;1739895;81;20972;-72
2021/10/09 03:58:54;;;;;;;11.75;6.78;;;;;;;1.68;61.96;102441.08;1738291;81;21592;-72
2021/10/09 04:01:23;;;;;;;7.62;5.05;;;;;;;1.66;62.01;102443.88;1705474;82;21052;-72
2021/10/09 04:03:50;;;;;;;9.88;6.30;;;;;;;1.63;62.24;102445.01;1730900;82;21065;-72
2021/10/09 04:06:16;;;;;;;12.10;6.40;;;;;;;1.60;62.33;102448.44;1738080;81;21151;-73
2021/10/09 04:08:43;;;;;;;12.23;6.75;;;;;;;1.57;62.52;102450.87;1712098;82;21008;-73
2021/10/09 04:11:11;;;;;;;9.28;6.20;;;;;;;1.55;62.75;102455.48;1730130;81;21038;-73
2021/10/09 04:13:39;;;;;;;9.73;6.47;;;;;;;1.49;63.06;102454.77;1695853;83;21470;-73
2021/10/09 04:16:05;;;;;;;11.80;6.70;;;;;;;1.45;63.15;102461.31;1744072;79;21045;-73
2021/10/09 04:18:34;;;;;;;12.65;8.28;;;;;;;1.45;63.22;102461.31;1746781;81;21847;-71
2021/10/09 04:21:00;;;;;;;12.47;8.88;;;;;;;1.47;63.29;102464.61;1738669;81;21015;-73
2021/10/09 04:23:27;;;;;;;15.13;10.03;;;;;;;1.48;63.32;102465.43;1706496;82;21559;-73
2021/10/09 04:25:55;;;;;;;16.25;9.70;;;;;;;1.51;63.42;102469.91;1744661;81;21089;-73
2021/10/09 04:28:24;;;;;;;25.48;13.58;;;;;;;1.50;63.74;102473.53;1745589;81;21275;-72
2021/10/09 04:30:51;;;;;;;31.33;16.02;;;;;;;1.45;63.81;102473.16;1706659;82;21172;-73
2021/10/09 04:33:19;;;;;;;32.58;15.95;;;;;;;1.43;64.01;102467.70;1695082;84;21006;-72
2021/10/09 04:35:47;;;;;;;26.40;14.55;;;;;;;1.40;64.14;102476.72;1749997;79;21026;-72
2021/10/09 04:38:14;;;;;;;21.62;11.73;;;;;;;1.42;64.29;102472.64;1748870;81;21089;-73
2021/10/09 04:40:42;;;;;;;18.87;10.35;;;;;;;1.44;64.19;102477.25;1711555;82;21596;-73
2021/10/09 04:43:09;;;;;;;19.77;10.98;;;;;;;1.46;64.23;102471.35;1759848;81;21104;-73
2021/10/09 04:45:36;;;;;;;13.45;8.30;;;;;;;1.49;64.27;102473.20;1741975;81;21082;-73
2021/10/09 04:48:07;;;;;;;17.67;10.23;;;;;;;1.51;64.21;102465.95;1692890;84;21105;-73
2021/10/09 04:50:35;;;;;;;18.07;9.85;;;;;;;1.55;64.16;102474.41;1737685;81;26827;-74
2021/10/09 04:53:03;;;;;;;14.13;9.40;;;;;;;1.58;64.15;102478.89;1731523;81;20966;-73
2021/10/09 04:55:30;;;;;;;13.58;8.45;;;;;;;1.62;64.22;102466.24;1733663;81;21183;-73
2021/10/09 04:57:57;;;;;;;14.87;8.40;;;;;;;1.66;64.08;102475.98;1720989;81;21090;-73
2021/10/09 05:00:23;;;;;;;12.03;7.00;;;;;;;1.67;63.93;102473.68;1744955;81;21011;-73
2021/10/09 05:02:50;;;;;;;12.10;7.17;;;;;;;1.71;63.88;102475.03;1719213;81;21129;-73
2021/10/09 05:05:17;;;;;;;13.62;7.62;;;;;;;1.73;63.86;102475.72;1755612;79;21014;-74
2021/10/09 05:07:45;;;;;;;10.82;7.10;;;;;;;1.76;63.80;102469.66;1704373;82;21149;-73
2021/10/09 05:10:12;;;;;;;11.68;6.53;;;;;;;1.80;63.75;102467.54;1730868;81;21051;-74
2021/10/09 05:12:40;;;;;;;10.18;6.30;;;;;;;1.85;63.79;102475.83;1717025;81;21692;-73
2021/10/09 05:15:08;;;;;;;11.22;6.58;;;;;;;1.88;63.62;102463.67;1702875;82;21628;-74
2021/10/09 05:17:35;;;;;;;12.47;7.30;;;;;;;1.95;63.25;102471.30;1722708;81;21054;-74
2021/10/09 05:20:07;;;;;;;11.93;6.75;;;;;;;2.04;63.19;102471.70;1723930;81;21714;-74
2021/10/09 05:22:34;;;;;;;10.70;7.08;;;;;;;2.11;63.05;102472.73;1721071;81;21089;-74
2021/10/09 05:25:04;;;;;;;13.10;6.92;;;;;;;2.18;62.67;102470.81;1702447;82;21082;-74
2021/10/09 05:27:35;;;;;;;10.40;6.37;;;;;;;2.25;62.56;102470.03;1694138;83;21061;-73
2021/10/09 05:30:07;;;;;;;11.90;7.12;;;;;;;2.33;62.45;102477.16;1705855;82;21722;-74
2021/10/09 05:32:45;;;;;;;12.65;7.67;;;;;;;2.40;62.29;102476.86;1744245;81;22198;-74
2021/10/09 05:35:04;;;;;;;11.50;8.15;;;;;;;2.48;62.31;102477.42;1750396;81;21118;-74
2021/10/09 05:37:32;;;;;;;10.15;7.33;;;;;;;2.56;61.66;102478.27;1736339;80;21061;-74
2021/10/09 05:39:59;;;;;;;14.90;7.95;;;;;;;2.65;61.62;102475.70;1744042;81;21077;-74
2021/10/09 05:42:27;;;;;;;12.23;7.08;;;;;;;2.74;61.36;102480.03;1731847;80;21062;-76
2021/10/09 05:44:53;;;;;;;10.45;6.80;;;;;;;2.80;61.13;102479.41;1751051;80;21576;-73
2021/10/09 05:47:20;;;;;;;13.68;7.72;;;;;;;2.87;60.73;102473.00;1743273;80;21113;-74
2021/10/09 05:49:55;;;;;;;12.75;7.58;;;;;;;2.96;60.71;102478.16;1752863;81;21042;-72
2021/10/09 05:52:33;;;;;;;10.68;6.05;;;;;;;3.05;60.68;102475.85;1715381;81;21093;-73
2021/10/09 05:55:08;;;;;;;11.93;7.30;;;;;;;3.18;60.78;102478.05;1742578;81;21105;-73
2021/10/09 05:57:35;;;;;;;11.95;6.58;;;;;;;3.27;60.45;102476.27;1744959;80;21098;-74
2021/10/09 06:59:40;;;;;;;13.28;6.40;;;;;;;5.69;51.41;102485.25;1742311;80;21069;-74
2021/10/09 07:02:07;;;;;;;10.58;5.55;;;;;;;5.83;51.47;102492.45;1740823;81;21198;-75
2021/10/09 07:04:34;;;;;;;8.38;4.90;;;;;;;5.99;50.57;102482.73;1738806;81;21140;-74
2021/10/09 07:07:04;;;;;;;10.48;5.87;;;;;;;6.14;50.77;102483.60;1741835;81;21085;-73
2021/10/09 07:09:34;;;;;;;10.43;5.05;;;;;;;6.31;50.40;102482.94;1744917;81;21093;-74
2021/10/09 07:12:05;;;;;;;9.43;5.00;;;;;;;6.49;49.58;102487.91;1736139;81;21143;-73
2021/10/09 07:14:36;;;;;;;10.53;5.45;;;;;;;6.61;48.71;102483.77;1736588;81;21116;-74
2021/10/09 07:17:03;;;;;;;8.38;5.05;;;;;;;6.72;47.80;102471.89;1746377;80;21131;-74
2021/10/09 07:19:31;;;;;;;7.33;4.90;;;;;;;6.86;48.06;102475.03;1741649;81;21069;-75
2021/10/09 07:21:58;;;;;;;8.23;4.80;;;;;;;7.00;47.77;102474.69;1741737;80;21058;-73
2021/10/09 07:24:24;;;;;;;7.22;4.70;;;;;;;7.14;47.06;102476.51;1738904;81;21075;-74
2021/10/09 07:26:52;;;;;;;8.38;4.33;;;;;;;7.28;46.60;102472.16;1746343;81;21113;-74
2021/10/09 07:29:19;;;;;;;9.25;4.72;;;;;;;7.40;45.99;102477.79;1739237;81;21138;-73
2021/10/09 07:31:47;;;;;;;10.08;4.80;;;;;;;7.54;46.20;102482.77;1727480;81;21052;-74
2021/10/09 07:34:13;;;;;;;7.70;3.90;;;;;;;7.66;45.55;102474.06;1734386;81;21049;-75
2021/10/09 07:36:40;;;;;;;7.33;4.12;;;;;;;7.80;45.05;102476.84;1756130;81;21022;-75
2021/10/09 07:39:07;;;;;;;7.30;4.47;;;;;;;7.92;45.42;102476.65;1755247;80;21104;-73
2021/10/09 07:41:34;;;;;;;11.25;4.40;;;;;;;8.04;44.87;102471.13;1727800;81;21956;-74
2021/10/09 07:44:03;;;;;;;8.95;4.25;;;;;;;8.19;44.20;102472.34;1737942;81;21596;-73
2021/10/09 07:46:30;;;;;;;7.35;4.28;;;;;;;8.35;44.51;102471.23;1707187;82;22315;-74
2021/10/09 07:48:56;;;;;;;9.03;4.50;;;;;;;8.52;42.88;102475.25;1705037;84;21091;-74
2021/10/09 07:51:23;;;;;;;9.53;4.80;;;;;;;8.62;42.70;102474.42;1710859;81;21109;-73
2021/10/09 07:53:51;;;;;;;8.18;3.75;;;;;;;8.72;42.26;102471.88;1733938;81;22015;-71
2021/10/09 07:56:18;;;;;;;5.92;3.20;;;;;;;8.83;40.68;102463.34;1749356;81;21164;-73
2021/10/09 07:58:48;;;;;;;5.50;2.83;;;;;;;8.94;40.55;102464.09;1746411;81;21093;-74
2021/10/09 08:01:18;;;;;;;11.08;3.70;;;;;;;9.08;39.44;102463.63;1727345;81;21722;-74
2021/10/09 08:03:49;;;;;;;8.10;3.20;;;;;;;9.22;39.45;102455.18;1703067;84;21786;-74
2021/10/09 08:06:26;;;;;;;5.22;2.67;;;;;;;9.36;39.48;102451.52;1730024;81;21291;-74
2021/10/09 08:08:52;;;;;;;5.65;2.67;;;;;;;9.53;37.79;102450.09;1740796;80;21043;-74
2021/10/09 08:11:19;;;;;;;4.62;2.40;;;;;;;9.68;38.24;102445.10;1743385;81;21071;-75
2021/10/09 08:13:46;;;;;;;5.78;2.70;;;;;;;9.82;36.22;102435.55;1759352;81;21014;-75
2021/10/09 08:16:12;;;;;;;5.62;2.70;;;;;;;9.88;35.52;102441.91;1741417;81;21516;-75
2021/10/09 08:18:39;;;;;;;5.87;2.60;;;;;;;9.91;36.23;102438.84;1744162;81;21744;-74
2021/10/09 08:21:06;;;;;;;5.85;2.60;;;;;;;9.97;34.98;102438.02;1750480;81;21038;-75
2021/10/09 08:23:44;;;;;;;7.80;2.37;;;;;;;10.03;35.03;102435.83;1742998;81;21054;-74
2021/10/09 08:36:55;;;;;;;4.40;2.00;;;;;;;10.48;32.84;102424.48;1697834;82;21019;-74
2021/10/09 08:39:21;;;;;;;3.47;1.80;;;;;;;10.54;31.91;102423.13;1703051;81;21015;-74
2021/10/09 08:41:48;;;;;;;3.60;2.05;;;;;;;10.61;32.05;102417.75;1718298;80;20931;-74
2021/10/09 08:44:15;;;;;;;4.33;2.30;;;;;;;10.72;32.23;102422.95;1762765;79;21468;-73
2021/10/09 08:46:42;;;;;;;5.47;1.90;;;;;;;10.83;32.30;102424.16;1721905;82;21510;-75
2021/10/09 08:49:10;;;;;;;4.78;1.92;;;;;;;10.91;30.81;102422.04;1731405;82;21078;-73
2021/10/09 08:51:39;;;;;;;10.08;2.15;;;;;;;10.96;30.26;102423.57;1719363;82;21055;-74
2021/10/09 08:54:09;;;;;;;3.30;1.75;;;;;;;11.01;30.28;102425.59;1726521;82;21064;-75
2021/10/09 08:56:47;;;;;;;4.28;2.20;;;;;;;11.03;31.22;102432.38;1723558;82;21105;-73
2021/10/09 08:59:29;;;;;;;4.53;1.80;;;;;;;11.11;31.00;102430.48;1720525;82;21141;-71
2021/10/09 09:35:19;;;;;;;4.13;1.90;;;;;;;11.84;28.92;102409.37;1756954;81;21842;-72
2021/10/09 09:40:08;;;;;;;3.90;1.93;;;;;;;11.91;28.26;102399.95;1761010;81;21049;-73
2021/10/09 09:42:47;;;;;;;5.03;1.97;;;;;;;11.99;28.65;102394.32;1766461;79;21206;-73
2021/10/09 09:45:23;;;;;;;3.83;1.93;;;;;;;12.08;28.14;102397.54;1758529;81;21198;-74
2021/10/09 09:47:56;;;;;;;6.93;2.10;;;;;;;12.15;27.96;102400.97;1749202;79;21391;-73
2021/10/09 09:50:23;;;;;;;5.83;1.90;;;;;;;12.18;27.86;102398.66;1739522;81;21197;-74
2021/10/09 09:52:50;;;;;;;3.93;1.73;;;;;;;12.23;28.40;102399.31;1751457;81;21342;-74
2021/10/09 09:55:18;;;;;;;3.77;1.90;;;;;;;12.32;28.67;102393.16;1761658;79;21182;-74
2021/10/09 09:57:45;;;;;;;4.50;1.80;;;;;;;12.40;27.53;102396.36;1761194;80;21285;-74
2021/10/09 10:00:15;;;;;;;3.73;1.63;;;;;;;12.41;27.10;102392.63;1758370;81;21360;-73
2021/10/09 10:02:51;;;;;;;3.03;1.90;;;;;;;12.37;27.04;102391.95;1749073;79;21330;-76
2021/10/09 10:05:24;;;;;;;4.43;1.90;;;;;;;12.35;27.45;102387.34;1761631;81;21286;-75
2021/10/09 10:07:52;;;;;;;4.93;1.67;;;;;;;12.43;28.70;102389.19;1756280;79;21746;-75
2021/10/09 10:10:18;;;;;;;4.53;2.10;;;;;;;12.49;27.62;102381.30;1763090;79;21177;-73
2021/10/09 10:12:50;;;;;;;4.43;2.00;;;;;;;12.53;27.73;102382.48;1761167;79;21328;-73
2021/10/09 10:15:17;;;;;;;3.57;1.93;;;;;;;12.55;28.11;102371.03;1695743;82;21417;-74
2021/10/09 10:17:47;;;;;;;4.30;2.20;;;;;;;12.59;27.59;102375.70;1709173;82;21285;-73
2021/10/09 10:20:17;;;;;;;4.27;1.90;;;;;;;12.60;27.52;102381.38;1728680;82;21351;-75
2021/10/09 10:22:50;;;;;;;4.70;2.00;;;;;;;12.66;27.79;102375.61;1703589;82;22362;-74
2021/10/09 10:25:31;;;;;;;6.40;1.90;;;;;;;12.78;27.74;102376.49;1744605;79;21408;-72
2021/10/09 10:28:17;;;;;;;3.87;2.10;;;;;;;12.84;26.44;102375.59;1755054;79;21219;-73
2021/10/09 10:30:45;;;;;;;4.60;1.93;;;;;;;12.87;27.19;102367.09;1752936;79;21817;-73
2021/10/09 10:33:19;;;;;;;3.97;1.93;;;;;;;12.90;26.84;102364.48;1758898;81;21241;-73
2021/10/09 10:35:47;;;;;;;3.23;1.80;;;;;;;12.94;26.44;102368.86;1749793;79;21305;-73
2021/10/09 10:38:34;;;;;;;5.90;2.20;;;;;;;12.93;26.61;102369.89;1704931;82;21245;-73
2021/10/09 10:41:07;;;;;;;9.53;1.97;;;;;;;12.93;25.50;102367.20;1746540;79;21342;-74
2021/10/09 10:46:54;;;;;;;4.75;2.08;;;;;;;12.71;26.14;102363.70;1804992;78;21238;-74
2021/10/09 10:51:56;;;;;;;6.30;2.07;;;;;;;12.59;26.67;102357.46;1740485;81;21222;-73
2021/10/09 10:54:36;;;;;;;4.47;2.20;;;;;;;12.70;26.44;102355.37;1792943;79;21314;-74
2021/10/09 10:57:08;;;;;;;14.70;2.87;;;;;;;12.76;26.17;102350.42;1801877;78;21273;-74
2021/10/09 10:59:57;;;;;;;4.90;1.97;;;;;;;12.82;26.49;102348.70;1798169;79;21087;-74
2021/10/09 11:02:36;;;;;;;4.00;1.90;;;;;;;12.94;27.02;102347.41;1801360;79;21302;-75
2021/10/09 11:05:08;;;;;;;4.33;2.03;;;;;;;13.10;27.17;102345.41;1797935;78;21778;-73
2021/10/09 11:07:37;;;;;;;6.87;2.77;;;;;;;13.17;26.35;102342.09;1790207;79;21374;-74
2021/10/09 11:10:16;;;;;;;5.27;2.10;;;;;;;13.17;25.17;102330.02;1790320;78;21770;-74
2021/10/09 11:12:50;;;;;;;5.03;2.10;;;;;;;13.12;25.88;102334.72;1792928;79;21100;-78
2021/10/09 11:15:23;;;;;;;3.50;2.07;;;;;;;13.20;26.85;102328.75;1803852;79;21153;-72
2021/10/09 11:17:58;;;;;;;4.67;2.17;;;;;;;13.29;26.43;102330.90;1796542;79;21843;-73
2021/10/09 11:20:27;;;;;;;5.93;1.97;;;;;;;13.37;25.69;102329.20;1790238;77;21321;-73
2021/10/09 11:23:05;;;;;;;4.70;1.83;;;;;;;13.35;24.54;102330.47;1789645;79;21302;-74
2021/10/09 11:25:43;;;;;;;5.63;1.93;;;;;;;13.27;25.48;102332.17;1796732;79;21332;-75
2021/10/09 11:28:30;;;;;;;4.67;2.00;;;;;;;13.25;25.87;102327.02;1810506;79;21329;-74
2021/10/09 11:30:57;;;;;;;3.90;2.00;;;;;;;13.29;26.05;102337.61;1802101;78;21732;-74
2021/10/09 11:33:25;;;;;;;3.53;1.80;;;;;;;13.35;26.27;102322.42;1797938;79;21227;-73
2021/10/09 11:35:53;;;;;;;4.13;2.00;;;;;;;13.42;25.90;102333.86;1805144;79;21277;-74
2021/10/09 11:38:25;;;;;;;4.87;2.03;;;;;;;13.47;24.61;102331.84;1786756;79;21218;-74
2021/10/09 11:40:57;;;;;;;4.57;2.30;;;;;;;13.46;24.65;102324.81;1788626;79;21686;-74
2021/10/09 11:43:46;;;;;;;5.33;2.75;;;;;;;13.41;24.23;102325.52;1807142;79;21093;-74
2021/10/09 11:46:15;;;;;;;4.03;2.20;;;;;;;13.37;23.54;102312.28;1767047;80;21836;-75
2021/10/09 11:54:33;;;;;;;4.83;2.20;;;;;;;13.31;25.66;102313.20;1765567;80;22266;-75
2021/10/09 11:56:57;;;;;;;3.70;2.00;;;;;;;13.39;24.93;102312.84;1768000;78;21239;-74
2021/10/09 11:59:38;;;;;;;3.73;2.03;;;;;;;13.41;25.18;102309.95;1766625;78;21748;-73
2021/10/09 12:02:05;;;;;;;4.28;1.87;;;;;;;13.38;25.76;102308.54;1778104;78;21679;-74
2021/10/09 12:04:32;;;;;;;4.07;2.13;;;;;;;13.42;25.45;102297.63;1765813;78;21485;-74
2021/10/09 12:07:09;;;;;;;3.37;2.20;;;;;;;13.44;25.05;102301.43;1773165;78;21324;-74
2021/10/09 12:09:57;;;;;;;3.70;1.90;;;;;;;13.40;24.71;102305.64;1777797;78;21342;-74
2021/10/09 12:12:22;;;;;;;6.27;2.17;;;;;;;13.35;25.44;102300.42;1772540;78;21277;-74
2021/10/09 12:14:52;;;;;;;5.97;2.03;;;;;;;13.36;25.06;102299.39;1765097;78;21113;-75
2021/10/09 12:17:22;;;;;;;6.50;2.27;;;;;;;13.31;24.39;102293.89;1781114;78;21699;-76
2021/10/09 12:19:59;;;;;;;6.43;2.77;;;;;;;13.20;24.38;102300.05;1771960;80;21295;-75
2021/10/09 12:22:26;;;;;;;12.47;5.80;;;;;;;13.12;25.12;102300.38;1762064;80;21284;-76
2021/10/09 12:24:54;;;;;;;7.57;3.80;;;;;;;13.11;25.69;102290.17;1784139;79;21116;-75
2021/10/09 12:27:27;;;;;;;8.13;3.27;;;;;;;13.13;26.24;102296.66;1771092;78;21813;-74
2021/10/09 12:30:10;;;;;;;5.22;2.95;;;;;;;13.13;25.13;102296.66;1764420;80;21605;-74
2021/10/09 12:32:49;;;;;;;6.20;2.50;;;;;;;13.10;25.22;102284.52;1774226;80;21061;-73
2021/10/09 12:35:33;;;;;;;7.80;2.57;;;;;;;13.10;25.37;102284.52;1767988;78;21241;-73
2021/10/09 12:38:10;;;;;;;5.50;2.97;;;;;;;13.13;24.66;102281.91;1769196;80;21446;-75
2021/10/09 12:40:45;;;;;;;4.70;2.30;;;;;;;13.03;25.05;102290.52;1780658;80;21115;-75
2021/10/09 12:43:13;;;;;;;6.67;2.43;;;;;;;13.05;26.37;102288.94;1789000;80;21274;-75
2021/10/09 12:45:43;;;;;;;6.13;2.40;;;;;;;13.09;25.44;102284.20;1768008;80;21651;-76
2021/10/09 12:48:10;;;;;;;5.00;2.33;;;;;;;13.12;25.49;102279.72;1773074;80;21267;-73
2021/10/09 12:50:39;;;;;;;4.83;2.50;;;;;;;13.17;26.07;102285.75;1776516;78;21348;-74
2021/10/09 12:53:06;;;;;;;6.47;2.80;;;;;;;13.20;25.91;102283.95;1774967;80;21180;-75
2021/10/09 12:55:33;;;;;;;6.97;2.60;;;;;;;13.22;26.12;102279.67;1778732;80;21336;-73
2021/10/09 12:58:04;;;;;;;5.00;2.20;;;;;;;13.24;27.10;102286.48;1777207;80;21392;-73
2021/10/09 13:00:32;;;;;;;4.07;2.50;;;;;;;13.22;26.08;102280.49;1768108;80;21275;-75
2021/10/09 13:02:59;;;;;;;6.33;2.50;;;;;;;13.13;26.18;102284.59;1766384;80;21752;-72
2021/10/09 13:05:28;;;;;;;4.67;2.40;;;;;;;13.03;26.94;102280.29;1784080;78;21313;-72
2021/10/09 13:07:57;;;;;;;6.60;2.43;;;;;;;12.94;27.25;102277.67;1770509;80;21332;-73
2021/10/09 13:10:24;;;;;;;5.73;2.63;;;;;;;12.86;26.78;102278.27;1768142;78;21197;-73
2021/10/09 13:12:51;;;;;;;5.17;2.30;;;;;;;12.79;27.73;102276.22;1776274;80;21273;-73
2021/10/09 13:15:19;;;;;;;5.97;2.67;;;;;;;12.73;26.24;102277.66;1777099;78;21102;-75
2021/10/09 13:17:47;;;;;;;4.33;2.40;;;;;;;12.67;25.82;102274.06;1768274;80;21229;-73
2021/10/09 13:20:17;;;;;;;4.33;2.47;;;;;;;12.60;26.28;102278.67;1769712;78;21283;-76
2021/10/09 13:22:44;;;;;;;9.50;4.30;;;;;;;12.56;26.59;102285.02;1761137;80;21292;-73
2021/10/09 13:25:11;;;;;;;7.80;4.27;;;;;;;12.56;26.70;102276.16;1776310;80;21215;-74
2021/10/09 13:27:39;;;;;;;7.23;3.93;;;;;;;12.55;26.43;102277.22;1786382;77;21989;-75
2021/10/09 13:30:07;;;;;;;5.90;3.30;;;;;;;12.56;27.61;102274.82;1773421;80;21336;-74
2021/10/09 13:32:34;;;;;;;5.47;2.97;;;;;;;12.59;27.46;102264.98;1775230;78;21245;-74
2021/10/09 13:35:02;;;;;;;5.77;2.60;;;;;;;12.62;27.18;102270.70;1766161;80;21229;-75
2021/10/09 13:37:36;;;;;;;6.30;2.70;;;;;;;12.61;26.37;102270.95;1786338;80;21750;-75
2021/10/09 13:40:02;;;;;;;4.43;2.43;;;;;;;12.58;26.84;102268.19;1759104;78;21259;-74
2021/10/09 13:42:29;;;;;;;4.67;3.10;;;;;;;12.55;27.07;102268.64;1766772;80;21148;-74
2021/10/09 13:44:57;;;;;;;6.07;3.13;;;;;;;12.53;26.68;102264.02;1773290;80;21305;-76
2021/10/09 13:47:24;;;;;;;8.47;3.20;;;;;;;12.53;27.53;102260.00;1765518;80;21383;-76
2021/10/09 13:49:52;;;;;;;8.53;3.73;;;;;;;12.54;27.26;102258.16;1775556;78;21307;-74
2021/10/09 13:52:18;;;;;;;7.03;3.67;;;;;;;12.53;26.94;102257.32;1772644;80;21389;-74
2021/10/09 13:54:45;;;;;;;6.13;3.00;;;;;;;12.53;26.95;102261.88;1769963;80;21176;-72
2021/10/09 13:57:11;;;;;;;7.50;3.50;;;;;;;12.49;26.55;102256.67;1768144;78;21242;-73
2021/10/09 13:59:39;;;;;;;7.43;3.37;;;;;;;12.48;26.82;102259.89;1771887;80;21251;-73
2021/10/09 14:02:05;;;;;;;6.47;3.30;;;;;;;12.46;27.30;102259.81;1774796;80;21143;-73
2021/10/09 14:04:37;;;;;;;8.67;3.50;;;;;;;12.42;27.75;102256.25;1782894;80;21724;-73
2021/10/09 14:07:00;;;;;;;6.10;3.17;;;;;;;12.37;27.91;102249.42;1767263;78;21195;-73
2021/10/09 14:09:27;;;;;;;5.47;2.90;;;;;;;12.32;27.74;102250.62;1762900;80;21833;-72
2021/10/09 14:11:54;;;;;;;7.40;3.20;;;;;;;12.26;26.72;102248.84;1785449;79;21294;-72
2021/10/09 14:14:24;;;;;;;7.17;3.50;;;;;;;12.20;26.43;102257.78;1762203;79;21142;-73
2021/10/09 14:16:49;;;;;;;7.43;3.50;;;;;;;12.12;27.05;102250.06;1772403;78;21181;-73
2021/10/09 14:19:15;;;;;;;7.47;4.07;;;;;;;12.07;27.49;102248.57;1776886;80;21150;-75
2021/10/09 14:21:42;;;;;;;10.80;5.30;;;;;;;12.02;27.37;102252.47;1773101;78;21575;-73
2021/10/09 14:24:08;;;;;;;9.33;5.67;;;;;;;11.96;27.70;102254.17;1780016;78;21835;-74
2021/10/09 14:26:35;;;;;;;11.37;6.00;;;;;;;11.90;27.77;102254.53;1767702;78;21339;-74